Time;durP1;ratioP1;P1;durP2;ratioP2;P2;SDS_P1;SDS_P2;PMS_P1;PMS_P2;Temp;Humidity;BMP_temperature;BMP_pressure;BME280_temperature;BME280_humidity;BME280_pressure;Samples;Min_cycle;Max_cycle;Signal;HPM_P1;HPM_P2
2022/05/15 00:00:37;;;;;;;4.27;2.47;;;;;;;13.24;66.15;100566.00;4469171;32;20466;-65
2022/05/15 00:03:06;;;;;;;7.62;2.90;;;;;;;13.14;67.17;100562.63;4471089;32;20154;-65
2022/05/15 00:05:33;;;;;;;18.02;2.55;;;;;;;13.05;67.80;100565.47;4470889;32;20080;-65
2022/05/15 00:08:01;;;;;;;5.78;2.50;;;;;;;13.03;67.71;100561.97;4471046;32;20084;-65
2022/05/15 00:10:29;;;;;;;4.82;2.37;;;;;;;12.94;69.14;100565.66;4470937;32;20154;-65
2022/05/15 00:12:56;;;;;;;7.62;2.03;;;;;;;12.90;68.74;100561.34;4471047;32;20108;-65
2022/05/15 00:15:23;;;;;;;1.75;1.50;;;;;;;12.95;67.61;100561.25;4470898;32;20440;-65
2022/05/15 00:17:50;;;;;;;5.40;2.10;;;;;;;13.16;65.75;100569.63;4470869;32;20426;-65
2022/05/15 00:20:17;;;;;;;3.22;1.40;;;;;;;13.81;61.77;100569.19;4471099;32;20546;-65
2022/05/15 00:22:45;;;;;;;3.97;1.70;;;;;;;14.37;59.43;100559.94;4470807;32;20137;-65
2022/05/15 00:25:12;;;;;;;5.12;1.80;;;;;;;14.76;58.05;100556.31;4470606;32;20176;-65
2022/05/15 00:27:40;;;;;;;3.03;1.58;;;;;;;15.09;56.78;100555.44;4470953;32;20143;-65
2022/05/15 00:30:07;;;;;;;6.55;1.60;;;;;;;15.34;55.70;100560.94;4470763;32;20088;-65
2022/05/15 00:32:35;;;;;;;3.67;1.35;;;;;;;15.51;54.85;100550.69;4470989;32;20107;-65
2022/05/15 00:35:04;;;;;;;3.95;1.58;;;;;;;15.72;54.29;100558.06;4470845;32;20102;-65
2022/05/15 00:37:31;;;;;;;6.03;2.10;;;;;;;15.88;53.63;100550.50;4470721;32;20097;-66
2022/05/15 00:39:58;;;;;;;3.33;1.83;;;;;;;16.00;53.29;100547.44;4471162;32;20092;-65
2022/05/15 00:42:26;;;;;;;3.55;1.80;;;;;;;16.04;53.33;100553.50;4470753;32;20529;-65
2022/05/15 00:44:53;;;;;;;5.95;1.60;;;;;;;15.95;53.89;100553.81;4470658;32;20115;-66
2022/05/15 00:47:22;;;;;;;5.65;1.52;;;;;;;15.78;53.89;100555.19;4470594;32;20408;-65
2022/05/15 00:49:50;;;;;;;6.40;2.08;;;;;;;15.70;54.25;100553.72;4470593;32;20175;-65
2022/05/15 00:52:24;;;;;;;2.90;1.73;;;;;;;15.71;54.49;100550.13;4470832;32;20136;-66
2022/05/15 00:54:59;;;;;;;6.85;1.65;;;;;;;15.67;54.55;100548.50;4470896;32;20072;-65
2022/05/15 00:57:33;;;;;;;2.97;1.73;;;;;;;15.71;54.16;100551.00;4470665;32;20107;-65
2022/05/15 01:00:16;;;;;;;3.70;1.70;;;;;;;15.69;54.27;100542.22;4456720;32;20426;-65
2022/05/15 01:03:06;;;;;;;3.72;2.25;;;;;;;15.78;53.93;100539.25;4470870;32;20420;-65
2022/05/15 01:05:39;;;;;;;8.52;1.62;;;;;;;15.81;53.72;100540.09;4470664;32;20404;-65
2022/05/15 01:08:08;;;;;;;5.93;1.80;;;;;;;15.81;53.71;100542.75;4470831;32;20088;-65
2022/05/15 01:10:38;;;;;;;3.85;1.60;;;;;;;15.82;53.95;100545.34;4470612;32;20122;-65
2022/05/15 01:13:06;;;;;;;4.18;2.17;;;;;;;15.85;53.50;100536.44;4469954;32;20099;-66
2022/05/15 01:15:34;;;;;;;4.53;1.50;;;;;;;15.88;53.29;100531.87;4470629;32;20088;-65
2022/05/15 01:18:03;;;;;;;6.07;1.80;;;;;;;15.91;53.59;100538.91;4470361;32;20123;-65
2022/05/15 01:20:32;;;;;;;3.70;1.70;;;;;;;15.92;53.35;100535.31;4470460;32;20176;-65
2022/05/15 01:23:00;;;;;;;4.10;1.80;;;;;;;15.95;52.98;100529.91;4470673;32;20383;-65
2022/05/15 01:25:34;;;;;;;4.47;1.75;;;;;;;15.93;53.09;100543.22;4470383;32;20172;-65
2022/05/15 01:28:09;;;;;;;10.98;2.33;;;;;;;15.92;53.35;100538.84;4456145;32;20579;-66
2022/05/15 01:30:41;;;;;;;4.03;1.70;;;;;;;15.86;53.26;100538.16;4470527;32;20444;-66
2022/05/15 01:33:08;;;;;;;3.67;2.05;;;;;;;15.87;53.32;100529.28;4470423;32;20104;-65
2022/05/15 01:35:36;;;;;;;7.03;1.80;;;;;;;15.83;53.34;100538.25;4470476;32;20088;-65
2022/05/15 01:38:06;;;;;;;6.78;2.10;;;;;;;15.81;53.58;100534.78;4470359;32;20100;-65
2022/05/15 01:40:34;;;;;;;5.57;1.50;;;;;;;15.74;53.62;100539.41;4470677;32;20476;-65
2022/05/15 01:43:03;;;;;;;4.00;1.70;;;;;;;15.63;53.91;100539.72;4470314;32;20117;-65
2022/05/15 01:45:30;;;;;;;4.25;1.90;;;;;;;15.51;54.59;100546.28;4470343;32;20444;-66
2022/05/15 01:47:58;;;;;;;4.78;1.90;;;;;;;15.37;55.22;100552.88;4470438;32;20160;-65
2022/05/15 01:50:26;;;;;;;9.35;2.12;;;;;;;15.14;56.37;100557.06;4470406;32;20502;-65
2022/05/15 01:52:54;;;;;;;3.60;1.75;;;;;;;14.84;58.67;100556.13;4470452;32;20478;-66
2022/05/15 01:55:21;;;;;;;7.40;1.83;;;;;;;14.55;60.44;100562.16;4470201;32;20497;-66
2022/05/15 01:57:48;;;;;;;3.55;1.85;;;;;;;14.29;61.42;100561.00;4470166;32;20093;-65
2022/05/15 02:00:23;;;;;;;5.93;2.10;;;;;;;14.05;62.76;100565.09;4470318;32;20100;-66
2022/05/15 02:02:51;;;;;;;2.15;1.95;;;;;;;13.85;63.85;100562.03;4470454;32;20161;-65
2022/05/15 02:05:20;;;;;;;5.18;1.70;;;;;;;13.69;64.15;100566.81;4470163;32;20107;-65
2022/05/15 02:07:48;;;;;;;5.22;2.00;;;;;;;13.51;65.31;100564.56;4470327;32;20104;-66
2022/05/15 02:10:18;;;;;;;4.20;1.80;;;;;;;13.34;65.83;100565.78;4470137;32;20131;-65
2022/05/15 02:12:46;;;;;;;3.70;1.83;;;;;;;13.20;65.76;100565.16;4470323;32;20490;-65
2022/05/15 02:15:14;;;;;;;5.68;1.85;;;;;;;13.17;65.60;100570.50;4470416;32;20084;-65
2022/05/15 02:17:42;;;;;;;5.87;1.80;;;;;;;13.14;66.46;100570.56;4470181;32;20506;-65
2022/05/15 02:20:12;;;;;;;5.75;2.30;;;;;;;13.12;66.91;100572.37;4470292;32;20184;-66
2022/05/15 02:22:40;;;;;;;4.90;2.33;;;;;;;13.08;67.29;100568.91;4470210;32;20126;-65
2022/05/15 02:25:11;;;;;;;7.50;2.25;;;;;;;13.05;67.49;100568.09;4469934;32;20745;-65
2022/05/15 02:27:39;;;;;;;5.30;2.87;;;;;;;13.16;67.09;100574.06;4470276;32;20137;-66
2022/05/15 02:30:08;;;;;;;3.97;2.53;;;;;;;13.11;68.66;100570.62;4470045;32;20217;-65
2022/05/15 02:32:35;;;;;;;4.20;2.78;;;;;;;13.11;67.83;100575.94;4469993;32;20088;-66
2022/05/15 02:35:03;;;;;;;4.90;2.50;;;;;;;13.06;73.13;100572.47;4469892;32;20111;-65
2022/05/15 02:37:31;;;;;;;5.35;2.50;;;;;;;12.99;71.37;100576.16;4469837;32;20508;-65
2022/05/15 02:39:59;;;;;;;6.90;2.72;;;;;;;12.96;69.85;100573.56;4470142;32;20724;-65
2022/05/15 02:42:27;;;;;;;4.62;2.30;;;;;;;12.86;71.62;100573.75;4470163;32;20104;-65
2022/05/15 02:44:54;;;;;;;4.30;2.53;;;;;;;12.75;70.83;100588.03;4469760;32;20100;-65
2022/05/15 02:47:21;;;;;;;6.43;2.65;;;;;;;12.68;70.34;100590.81;4470173;32;20698;-65
2022/05/15 02:52:35;;;;;;;4.12;3.00;;;;;;;12.59;70.45;100587.44;4469892;32;20542;-65
2022/05/15 02:55:03;;;;;;;5.60;2.90;;;;;;;12.50;72.49;100598.16;4469675;32;20175;-65
2022/05/15 02:57:30;;;;;;;9.55;2.60;;;;;;;12.35;73.60;100605.44;4469768;32;20153;-65
2022/05/15 02:59:58;;;;;;;5.22;2.92;;;;;;;12.23;73.25;100599.47;4469691;32;20540;-65
2022/05/15 03:02:25;;;;;;;5.87;2.90;;;;;;;12.19;72.89;100599.53;4469754;32;20122;-65
2022/05/15 03:04:52;;;;;;;7.40;2.75;;;;;;;12.08;74.53;100604.06;4469875;32;20088;-66
2022/05/15 03:07:20;;;;;;;3.83;2.87;;;;;;;12.01;74.02;100607.69;4469569;32;20084;-65
2022/05/15 03:09:47;;;;;;;4.65;2.97;;;;;;;11.91;75.68;100604.34;4469507;32;20165;-65
2022/05/15 03:12:14;;;;;;;5.07;3.03;;;;;;;11.96;74.85;100601.62;4469803;32;20164;-66
2022/05/15 03:14:42;;;;;;;4.55;2.92;;;;;;;11.91;77.41;100609.59;4469611;32;20096;-66
2022/05/15 03:17:09;;;;;;;6.40;2.92;;;;;;;11.83;77.74;100606.16;4469471;32;20175;-65
2022/05/15 03:19:36;;;;;;;8.23;3.35;;;;;;;11.70;78.08;100597.53;4469472;32;20100;-65
2022/05/15 03:22:03;;;;;;;5.90;3.40;;;;;;;11.63;79.72;100598.50;4469484;32;20134;-65
2022/05/15 03:24:31;;;;;;;8.38;2.92;;;;;;;11.62;78.98;100603.78;4467568;32;20489;-65
2022/05/15 03:26:58;;;;;;;9.50;2.97;;;;;;;11.78;77.22;100610.63;4469470;32;20069;-66
2022/05/15 03:29:27;;;;;;;6.53;2.97;;;;;;;11.84;76.36;100609.72;4469574;32;20154;-66
2022/05/15 03:31:54;;;;;;;8.18;3.08;;;;;;;11.89;75.59;100611.38;4469442;32;20463;-66
2022/05/15 03:34:22;;;;;;;4.28;2.75;;;;;;;11.92;75.60;100619.28;4469306;32;20462;-65
2022/05/15 03:36:51;;;;;;;5.32;3.00;;;;;;;12.00;75.39;100613.87;4473350;32;20144;-65
2022/05/15 03:39:21;;;;;;;3.37;2.92;;;;;;;11.96;77.60;100612.19;4474639;32;20138;-65
2022/05/15 03:41:49;;;;;;;8.68;3.08;;;;;;;11.83;78.62;100616.72;4474701;32;20383;-65
2022/05/15 03:44:17;;;;;;;4.10;2.85;;;;;;;11.78;78.69;100618.53;4474400;32;20114;-65
2022/05/15 03:46:45;;;;;;;4.85;2.60;;;;;;;11.80;79.51;100614.13;4474577;32;20909;-65
2022/05/15 03:49:13;;;;;;;5.40;2.95;;;;;;;11.87;78.02;100621.13;4474546;32;20100;-65
2022/05/15 03:51:41;;;;;;;4.72;2.90;;;;;;;11.96;78.65;100625.38;4474472;32;20130;-65
2022/05/15 03:54:09;;;;;;;4.97;2.78;;;;;;;11.98;79.04;100623.59;4474287;32;20207;-66
2022/05/15 03:56:50;;;;;;;10.45;2.90;;;;;;;11.95;79.25;100623.66;4474408;32;20130;-65
2022/05/15 03:59:31;;;;;;;3.78;2.83;;;;;;;12.03;77.22;100623.53;4474213;32;20112;-66
2022/05/15 04:02:00;;;;;;;5.18;2.58;;;;;;;12.20;76.08;100627.69;4474189;32;20125;-65
2022/05/15 04:04:29;;;;;;;3.00;2.75;;;;;;;12.37;75.47;100627.44;4474090;32;20452;-66
2022/05/15 04:06:57;;;;;;;5.90;3.00;;;;;;;12.41;75.53;100629.12;4474013;32;20161;-65
2022/05/15 04:09:25;;;;;;;4.37;2.60;;;;;;;12.53;75.58;100633.34;4474199;32;20104;-65
2022/05/15 04:11:52;;;;;;;5.28;2.97;;;;;;;12.64;74.42;100631.38;4474223;32;20112;-65
2022/05/15 04:14:19;;;;;;;5.43;2.80;;;;;;;12.77;73.95;100632.06;4474300;32;20122;-66
2022/05/15 04:16:47;;;;;;;4.55;2.83;;;;;;;12.88;73.55;100637.16;4474116;32;20108;-66
2022/05/15 04:19:14;;;;;;;5.43;3.10;;;;;;;12.99;73.30;100636.97;4473851;32;20608;-66
2022/05/15 04:21:41;;;;;;;7.65;3.12;;;;;;;13.09;73.51;100628.84;4471377;32;76945;-65
2022/05/15 04:24:13;;;;;;;6.60;3.00;;;;;;;13.21;73.52;100629.53;4474074;32;20157;-65
2022/05/15 04:26:43;;;;;;;4.40;2.65;;;;;;;13.41;72.39;100637.13;4473573;32;20108;-65
2022/05/15 04:29:10;;;;;;;4.22;2.40;;;;;;;13.59;72.04;100636.75;4473717;32;20163;-65
2022/05/15 04:31:38;;;;;;;5.05;2.65;;;;;;;13.76;71.57;100641.72;4473910;32;20521;-65
2022/05/15 04:34:05;;;;;;;4.60;2.28;;;;;;;13.87;71.45;100637.91;4473608;32;20431;-65
2022/05/15 04:36:34;;;;;;;4.82;2.08;;;;;;;14.03;70.10;100638.47;4473515;32;20092;-66
2022/05/15 04:39:03;;;;;;;2.60;2.20;;;;;;;14.20;70.25;100639.84;4473618;32;20100;-66
2022/05/15 04:41:31;;;;;;;3.87;2.35;;;;;;;14.37;69.38;100645.66;4473733;32;20420;-66
2022/05/15 04:44:00;;;;;;;5.53;2.00;;;;;;;14.54;67.56;100640.84;4473435;32;20107;-66
2022/05/15 04:46:29;;;;;;;7.30;2.15;;;;;;;14.71;66.70;100640.44;4473262;32;20084;-66
2022/05/15 04:48:58;;;;;;;6.32;2.10;;;;;;;14.87;66.36;100642.69;4470147;32;20088;-66
2022/05/15 04:51:25;;;;;;;3.55;1.80;;;;;;;15.03;66.03;100652.03;4470719;32;20118;-66
2022/05/15 04:53:53;;;;;;;3.67;1.92;;;;;;;15.17;67.07;100654.31;4470955;32;20530;-66
2022/05/15 04:56:21;;;;;;;6.72;2.75;;;;;;;15.27;65.40;100653.16;4470953;32;20188;-66
2022/05/15 04:58:49;;;;;;;4.50;2.28;;;;;;;15.39;65.18;100651.94;4470549;32;20403;-66
2022/05/15 05:01:17;;;;;;;2.72;1.60;;;;;;;15.50;64.83;100648.06;4470651;32;20569;-66
2022/05/15 05:03:45;;;;;;;3.97;1.62;;;;;;;15.60;62.32;100648.69;4470528;32;20175;-66
2022/05/15 05:06:12;;;;;;;2.83;1.62;;;;;;;15.75;62.69;100656.25;4470687;32;20135;-66
2022/05/15 05:08:40;;;;;;;4.32;1.77;;;;;;;15.90;63.79;100646.09;4470545;32;20161;-66
2022/05/15 05:11:07;;;;;;;3.10;1.70;;;;;;;16.04;61.87;100651.00;4470441;32;20147;-66
2022/05/15 05:13:34;;;;;;;8.15;2.42;;;;;;;16.19;61.55;100656.72;4470525;32;20115;-66
2022/05/15 05:16:01;;;;;;;1.60;1.50;;;;;;;16.32;61.44;100657.22;4470468;32;20100;-66
2022/05/15 05:18:29;;;;;;;3.83;1.70;;;;;;;16.46;61.43;100664.75;4470369;32;20175;-66
2022/05/15 05:20:56;;;;;;;4.60;1.60;;;;;;;16.64;60.14;100661.53;4470469;32;20130;-66
2022/05/15 05:23:23;;;;;;;2.25;1.60;;;;;;;16.81;57.62;100654.78;4470406;32;20365;-66
2022/05/15 05:25:51;;;;;;;2.37;1.73;;;;;;;16.99;58.17;100659.50;4470175;32;20504;-66
2022/05/15 05:28:18;;;;;;;6.30;1.70;;;;;;;17.19;55.90;100654.34;4470394;32;20588;-66
2022/05/15 05:30:46;;;;;;;3.58;1.60;;;;;;;17.31;54.71;100657.50;4470345;32;20130;-66
2022/05/15 05:33:13;;;;;;;2.87;1.50;;;;;;;17.50;53.07;100666.59;4470304;32;20118;-66
2022/05/15 05:35:42;;;;;;;5.18;2.00;;;;;;;17.61;52.79;100663.53;4470605;32;20093;-66
2022/05/15 05:38:09;;;;;;;4.03;1.83;;;;;;;17.79;52.31;100662.03;4470595;32;20100;-66
2022/05/15 05:40:37;;;;;;;5.60;1.92;;;;;;;17.92;53.64;100665.97;4470392;32;20096;-66
2022/05/15 05:43:04;;;;;;;5.75;1.50;;;;;;;18.00;52.23;100660.34;4470284;32;20096;-66
2022/05/15 05:45:32;;;;;;;5.07;1.52;;;;;;;18.11;52.55;100671.47;4470163;32;20088;-66
2022/05/15 05:47:59;;;;;;;4.95;1.60;;;;;;;18.19;51.58;100669.38;4470130;32;20084;-66
2022/05/15 05:50:28;;;;;;;5.78;2.00;;;;;;;18.28;52.15;100665.50;4470236;32;20104;-66
2022/05/15 05:52:55;;;;;;;7.00;1.83;;;;;;;18.40;51.53;100675.66;4470218;32;20088;-66
2022/05/15 05:55:25;;;;;;;2.75;1.58;;;;;;;18.52;50.54;100672.53;4470032;32;20152;-66
2022/05/15 05:57:53;;;;;;;4.90;1.67;;;;;;;18.69;50.05;100673.63;4470235;32;20096;-66
2022/05/15 06:00:26;;;;;;;3.35;1.62;;;;;;;18.79;50.21;100670.53;4469795;32;20171;-66
2022/05/15 06:04:39;;;;;;;3.47;1.52;;;;;;;18.90;50.01;100670.09;4470214;32;20075;-66
2022/05/15 06:05:43;;;;;;;3.65;1.67;;;;;;;19.05;47.76;100671.28;4469967;32;20141;-66
2022/05/15 06:08:11;;;;;;;2.65;1.60;;;;;;;19.21;48.18;100679.50;4470053;32;20157;-66
2022/05/15 06:10:38;;;;;;;7.60;1.67;;;;;;;19.30;45.52;100679.97;4470226;32;20092;-66
2022/05/15 06:13:06;;;;;;;5.35;1.40;;;;;;;19.42;46.06;100677.69;4470044;32;20076;-66
2022/05/15 06:15:34;;;;;;;1.92;1.33;;;;;;;19.52;46.24;100679.03;4469884;32;20118;-66
2022/05/15 06:18:04;;;;;;;3.45;1.60;;;;;;;19.64;46.62;100675.84;4469972;32;20108;-66
2022/05/15 06:20:32;;;;;;;3.90;1.60;;;;;;;19.72;47.21;100683.53;4469915;32;20100;-66
2022/05/15 06:23:00;;;;;;;6.30;1.95;;;;;;;19.84;47.40;100680.28;4469802;32;20088;-66
2022/05/15 06:25:27;;;;;;;7.07;1.98;;;;;;;19.93;46.58;100685.22;4455246;32;20127;-66
2022/05/15 06:27:54;;;;;;;5.78;1.75;;;;;;;19.99;46.31;100679.56;4469708;32;20145;-66
2022/05/15 06:30:22;;;;;;;2.85;1.85;;;;;;;20.09;45.45;100685.38;4470028;32;20446;-66
2022/05/15 06:32:49;;;;;;;6.68;1.80;;;;;;;20.18;44.10;100684.09;4470026;32;20434;-66
2022/05/15 06:35:17;;;;;;;8.60;1.87;;;;;;;20.22;44.03;100683.00;4469940;32;20088;-66
2022/05/15 06:37:45;;;;;;;7.78;1.80;;;;;;;20.36;43.41;100677.87;4469909;32;20092;-66
2022/05/15 06:40:14;;;;;;;6.47;2.00;;;;;;;20.49;42.50;100679.03;4469751;32;20095;-66
2022/05/15 06:42:42;;;;;;;2.97;1.77;;;;;;;20.67;42.38;100682.66;4469852;32;20126;-66
2022/05/15 06:45:11;;;;;;;3.58;1.62;;;;;;;20.74;41.45;100677.81;4470042;32;20122;-66
2022/05/15 06:47:38;;;;;;;7.10;1.70;;;;;;;20.84;40.55;100678.25;4469654;32;20123;-66
2022/05/15 06:50:07;;;;;;;7.97;1.95;;;;;;;20.80;40.90;100682.88;4469760;32;20100;-66
2022/05/15 06:52:36;;;;;;;6.47;1.80;;;;;;;20.86;40.78;100671.00;4470051;32;20084;-66
2022/05/15 06:55:07;;;;;;;4.60;1.60;;;;;;;20.92;40.88;100676.94;4469725;32;20165;-66
2022/05/15 06:57:34;;;;;;;2.15;1.40;;;;;;;21.05;41.35;100685.19;4469665;32;20091;-66
2022/05/15 07:00:06;;;;;;;8.95;2.05;;;;;;;21.19;40.59;100674.66;4469614;32;20154;-66
2022/05/15 07:02:34;;;;;;;3.35;1.75;;;;;;;21.38;39.91;100679.97;4469751;32;20076;-66
2022/05/15 07:05:01;;;;;;;5.28;1.90;;;;;;;21.52;40.88;100678.38;4469369;32;20177;-66
2022/05/15 07:07:28;;;;;;;3.97;1.45;;;;;;;21.64;39.98;100672.38;4469210;32;20092;-66
2022/05/15 07:09:56;;;;;;;28.40;2.37;;;;;;;21.68;39.64;100681.97;4468677;32;20130;-66
2022/05/15 07:12:26;;;;;;;3.58;1.45;;;;;;;21.74;39.61;100681.66;4469101;32;20164;-66
2022/05/15 07:14:53;;;;;;;5.28;1.77;;;;;;;21.77;40.33;100683.28;4469517;32;20137;-66
2022/05/15 07:17:20;;;;;;;7.97;1.70;;;;;;;21.88;39.97;100684.47;4454716;32;20584;-66
2022/05/15 07:19:48;;;;;;;4.25;1.65;;;;;;;21.90;40.05;100684.37;4469379;32;20526;-66
2022/05/15 07:22:15;;;;;;;5.90;1.87;;;;;;;21.79;38.99;100684.09;4469422;32;20093;-66
2022/05/15 07:24:42;;;;;;;6.37;1.62;;;;;;;21.84;38.23;100679.34;4468972;32;20434;-66
2022/05/15 07:27:10;;;;;;;2.92;1.73;;;;;;;21.85;39.16;100676.56;4468999;32;20085;-66
2022/05/15 07:29:37;;;;;;;2.37;1.20;;;;;;;21.93;39.64;100679.69;4468598;32;20526;-66
2022/05/15 07:32:06;;;;;;;3.75;1.80;;;;;;;22.10;39.54;100677.91;4469403;32;20581;-66
2022/05/15 07:34:37;;;;;;;28.38;2.45;;;;;;;22.28;38.47;100678.75;4469175;32;20176;-66
2022/05/15 07:37:05;;;;;;;1.77;1.20;;;;;;;22.33;38.61;100672.19;4469501;32;20092;-66
2022/05/15 07:39:32;;;;;;;6.25;1.60;;;;;;;22.48;38.05;100678.50;4469364;32;20095;-66
2022/05/15 07:41:59;;;;;;;5.80;1.42;;;;;;;22.41;38.42;100685.19;4469198;32;20093;-66
2022/05/15 07:44:26;;;;;;;5.40;1.42;;;;;;;22.49;38.83;100684.75;4469112;32;20112;-66
2022/05/15 07:46:53;;;;;;;6.43;1.80;;;;;;;22.62;37.81;100680.41;4469108;32;20620;-66
2022/05/15 07:49:21;;;;;;;7.05;1.95;;;;;;;22.51;37.59;100675.66;4469001;32;20490;-66
2022/05/15 07:51:48;;;;;;;3.47;1.80;;;;;;;22.76;38.24;100682.31;4469254;32;20092;-66
2022/05/15 07:54:17;;;;;;;9.27;1.60;;;;;;;22.65;36.85;100682.88;4469024;32;20096;-66
2022/05/15 07:56:45;;;;;;;2.92;1.55;;;;;;;22.70;37.25;100682.66;4468944;32;20092;-66
2022/05/15 07:59:13;;;;;;;5.15;1.65;;;;;;;22.65;37.53;100685.56;4468955;32;20157;-66
2022/05/15 08:01:41;;;;;;;4.20;1.60;;;;;;;22.90;38.29;100675.16;4469094;32;20096;-66
2022/05/15 08:04:10;;;;;;;5.10;1.60;;;;;;;23.01;37.57;100671.88;4468837;32;20149;-66
2022/05/15 08:09:23;;;;;;;2.10;1.48;;;;;;;23.36;36.28;100675.16;4469016;32;20573;-66
2022/05/15 08:11:51;;;;;;;6.70;1.52;;;;;;;23.50;36.09;100673.41;4468727;32;20443;-66
2022/05/15 08:14:18;;;;;;;7.45;1.48;;;;;;;23.75;35.45;100670.13;4468677;32;20085;-66
2022/05/15 08:16:45;;;;;;;3.22;1.73;;;;;;;23.97;34.93;100661.56;4468596;32;20138;-66
2022/05/15 08:24:45;;;;;;;4.40;1.20;;;;;;;24.39;33.74;100673.25;4470688;32;20123;-66
2022/05/15 08:27:12;;;;;;;5.10;1.30;;;;;;;24.15;33.16;100673.84;4470860;32;20237;-66
2022/05/15 08:29:41;;;;;;;3.10;1.30;;;;;;;24.09;32.90;100675.09;4470814;32;20160;-66
2022/05/15 08:32:08;;;;;;;8.68;1.37;;;;;;;24.49;32.48;100679.81;4470893;32;20380;-66
2022/05/15 08:34:41;;;;;;;5.87;1.67;;;;;;;24.49;31.72;100679.81;4470753;32;20084;-66
2022/05/15 08:37:08;;;;;;;3.45;1.33;;;;;;;24.62;32.42;100678.00;4470703;32;20112;-66
2022/05/15 08:39:35;;;;;;;5.07;1.20;;;;;;;24.97;31.92;100669.41;4470676;32;20100;-66
2022/05/15 08:42:22;;;;;;;4.47;1.52;;;;;;;24.65;31.38;100672.44;4470749;32;20170;-66
2022/05/15 08:44:54;;;;;;;3.12;1.50;;;;;;;24.63;31.97;100674.37;4470783;32;20166;-66
2022/05/15 08:47:33;;;;;;;2.67;1.20;;;;;;;24.87;31.22;100684.47;4470605;32;20185;-66
2022/05/15 08:50:11;;;;;;;4.00;1.20;;;;;;;25.08;30.26;100672.25;4456533;32;20116;-66
2022/05/15 08:53:02;;;;;;;3.20;1.37;;;;;;;25.33;30.21;100676.00;4470634;32;20190;-66
2022/05/15 08:55:43;;;;;;;10.57;1.98;;;;;;;25.03;31.13;100659.09;4470855;32;20159;-66
2022/05/15 08:58:48;;;;;;;5.47;1.70;;;;;;;25.18;30.98;100673.38;4470682;32;20445;-66
2022/05/15 09:01:29;;;;;;;2.70;1.37;;;;;;;25.21;30.56;100665.09;4470505;32;20499;-66
2022/05/15 09:03:58;;;;;;;4.25;1.42;;;;;;;25.13;30.76;100670.16;4470794;32;20077;-66
2022/05/15 09:06:28;;;;;;;2.30;1.12;;;;;;;25.44;30.42;100658.13;4470542;32;20160;-66
2022/05/15 09:08:58;;;;;;;2.25;1.15;;;;;;;25.81;30.14;100670.87;4470589;32;20150;-66
2022/05/15 09:11:49;;;;;;;7.07;1.50;;;;;;;25.77;30.43;100674.75;4470533;32;20531;-66
2022/05/15 09:14:35;;;;;;;14.00;1.60;;;;;;;25.56;29.31;100666.31;4470547;32;20100;-66
2022/05/15 09:17:16;;;;;;;10.05;1.60;;;;;;;25.34;29.20;100664.25;4470735;32;20479;-66
2022/05/15 09:19:48;;;;;;;5.35;1.80;;;;;;;25.68;29.99;100669.00;4470522;32;20440;-66
2022/05/15 09:22:17;;;;;;;6.35;1.33;;;;;;;25.86;29.25;100668.72;4470470;32;20515;-66
2022/05/15 09:24:51;;;;;;;4.32;0.90;;;;;;;25.57;28.95;100668.91;4470376;32;20443;-66
2022/05/15 09:27:25;;;;;;;4.47;1.47;;;;;;;25.35;28.96;100661.44;4470497;32;20098;-66
2022/05/15 09:29:53;;;;;;;3.33;1.65;;;;;;;25.68;29.14;100666.31;4470425;32;20096;-66
2022/05/15 09:32:42;;;;;;;4.95;1.12;;;;;;;25.93;28.92;100665.44;4470377;32;20142;-66
2022/05/15 09:35:28;;;;;;;4.03;1.20;;;;;;;26.26;28.48;100655.03;4469972;32;20077;-66
2022/05/15 09:43:49;;;;;;;2.50;0.98;;;;;;;27.07;27.33;100663.38;4470360;32;20111;-66
2022/05/15 09:46:20;;;;;;;2.97;1.02;;;;;;;26.87;27.56;100662.16;4470245;32;20084;-66
2022/05/15 09:48:47;;;;;;;4.57;1.37;;;;;;;26.45;27.65;100658.97;4470250;32;20140;-66
2022/05/15 09:51:27;;;;;;;6.57;1.37;;;;;;;26.47;27.67;100658.91;4470226;32;20173;-66
2022/05/15 09:53:57;;;;;;;4.32;1.30;;;;;;;26.22;27.58;100655.28;4470367;32;20119;-66
2022/05/15 09:56:28;;;;;;;2.55;1.30;;;;;;;26.26;27.50;100655.03;4470186;32;20084;-66
2022/05/15 09:59:05;;;;;;;5.82;2.67;;;;;;;26.55;26.88;100656.47;4470229;32;20111;-66
2022/05/15 10:01:40;;;;;;;4.25;1.35;;;;;;;26.64;27.73;100658.50;4470287;32;20423;-66
2022/05/15 10:04:28;;;;;;;3.13;1.83;;;;;;;26.52;27.77;100655.84;4470387;32;20440;-66
2022/05/15 10:07:03;;;;;;;6.95;1.25;;;;;;;26.73;27.82;100651.53;4470197;32;20084;-66
2022/05/15 10:09:31;;;;;;;11.52;1.87;;;;;;;26.57;27.42;100648.25;4470157;32;20072;-66
2022/05/15 10:12:04;;;;;;;2.60;1.20;;;;;;;26.41;27.68;100652.06;4470107;32;20100;-66
2022/05/15 10:14:39;;;;;;;5.68;1.10;;;;;;;26.40;27.56;100646.78;4470123;32;20549;-66
2022/05/15 10:17:08;;;;;;;2.00;1.20;;;;;;;26.88;27.24;100639.56;4470067;32;20084;-66
2022/05/15 10:19:51;;;;;;;5.93;1.10;;;;;;;27.29;26.88;100642.81;4470057;32;20135;-66
2022/05/15 10:22:47;;;;;;;7.40;2.00;;;;;;;27.51;26.43;100637.44;4469996;32;20501;-66
2022/05/15 10:25:24;;;;;;;3.83;1.80;;;;;;;27.84;25.61;100638.47;4469889;32;20124;-66
2022/05/15 10:28:19;;;;;;;6.47;1.35;;;;;;;28.35;25.64;100641.50;4469918;32;20418;-66
2022/05/15 10:31:02;;;;;;;4.10;1.42;;;;;;;28.86;25.40;100639.16;4469956;32;20142;-66
2022/05/15 10:33:37;;;;;;;3.30;2.60;;;;;;;27.96;26.34;100645.62;4470159;32;20157;-66
2022/05/15 10:36:16;;;;;;;4.20;1.80;;;;;;;27.90;26.61;100629.84;4469837;32;20104;-66
2022/05/15 10:38:59;;;;;;;8.25;1.75;;;;;;;27.97;26.86;100628.38;4469914;32;20073;-66
2022/05/15 10:42:13;;;;;;;4.00;1.67;;;;;;;28.36;25.81;100628.81;4469837;32;20143;-66
2022/05/15 10:44:40;;;;;;;6.00;1.75;;;;;;;28.83;25.29;100613.13;4469263;32;20136;-66
2022/05/15 10:47:23;;;;;;;2.25;1.45;;;;;;;28.57;25.66;100629.75;4469203;32;20089;-66
2022/05/15 10:50:19;;;;;;;5.95;1.77;;;;;;;28.14;25.12;100620.72;4469959;32;20368;-66
2022/05/15 10:57:21;;;;;;;4.53;1.42;;;;;;;28.44;25.41;100622.78;4469945;32;20080;-66
2022/05/15 10:59:29;;;;;;;1.42;0.93;;;;;;;30.28;23.40;100610.41;4426389;32;20093;-66
2022/05/15 11:02:21;;;;;;;4.30;1.85;;;;;;;30.93;22.96;100611.66;4469645;32;20076;-66
2022/05/15 11:05:00;;;;;;;4.43;1.90;;;;;;;30.13;23.21;100612.63;4469761;32;20882;-66
2022/05/15 11:08:03;;;;;;;9.85;2.35;;;;;;;30.33;23.47;100612.72;4469684;32;20076;-66
2022/05/15 11:10:33;;;;;;;7.43;1.02;;;;;;;30.41;22.56;100610.16;4469742;32;20195;-66
2022/05/15 11:13:01;;;;;;;5.12;1.58;;;;;;;29.74;23.03;100609.78;4469772;32;20076;-66
2022/05/15 11:15:40;;;;;;;4.80;1.50;;;;;;;28.97;23.12;100599.25;4469709;32;20088;-66
2022/05/15 11:18:17;;;;;;;2.80;1.60;;;;;;;28.36;23.94;100604.41;4469534;32;20084;-66
2022/05/15 11:20:55;;;;;;;4.55;1.25;;;;;;;29.04;23.75;100600.47;4469538;32;20477;-66
2022/05/15 11:23:30;;;;;;;3.95;1.10;;;;;;;30.03;23.31;100600.88;4469700;32;20220;-66
2022/05/15 11:26:09;;;;;;;2.42;1.00;;;;;;;31.11;22.13;100600.03;4469270;32;20084;-66
2022/05/15 11:28:43;;;;;;;3.72;1.23;;;;;;;30.24;22.43;100600.81;4469271;32;20888;-66
2022/05/15 11:31:28;;;;;;;2.85;1.27;;;;;;;29.57;23.85;100588.66;4469368;32;20087;-66
2022/05/15 11:34:02;;;;;;;8.05;1.23;;;;;;;30.71;22.31;100582.00;4469617;32;20173;-66
2022/05/15 11:36:45;;;;;;;1.60;1.25;;;;;;;31.04;21.82;100586.13;4469343;32;20361;-66
2022/05/15 11:39:15;;;;;;;3.30;1.27;;;;;;;31.41;21.96;100582.63;4469275;32;20096;-66
2022/05/15 11:41:42;;;;;;;2.37;1.37;;;;;;;30.46;22.95;100584.28;4469315;32;20096;-66
2022/05/15 11:44:19;;;;;;;2.60;1.15;;;;;;;31.50;21.96;100586.34;4469418;32;20084;-67
2022/05/15 11:46:51;;;;;;;3.28;1.55;;;;;;;33.07;20.55;100575.16;4469233;32;20387;-67
2022/05/15 11:49:37;;;;;;;5.80;1.50;;;;;;;33.64;19.93;100578.31;4469104;32;20130;-66
2022/05/15 11:52:05;;;;;;;5.80;1.23;;;;;;;33.25;20.64;100584.19;4469112;32;20187;-66
2022/05/15 11:54:37;;;;;;;1.40;1.20;;;;;;;33.42;18.79;100576.06;4468978;32;20114;-67
2022/05/15 11:57:13;;;;;;;4.47;1.08;;;;;;;34.02;18.90;100576.06;4469733;32;20126;-67
2022/05/15 11:59:56;;;;;;;5.55;1.35;;;;;;;34.28;19.11;100573.28;4471136;32;20092;-67
2022/05/15 12:02:32;;;;;;;5.50;1.40;;;;;;;35.11;18.16;100573.19;4471301;32;20138;-67